Comins, Michigan
Current Conditions -  °F | °C
As of 3:54 PM on Thursday 20 Nov 2014 (Local Time) from KAPN Reporting Station
Broken Clouds Broken Clouds  
Wind Chill: 11°   Ceiling: 9000
Heat Index: 21°   Visibility: 10mi
Dew Point:   Wind: 9mph
Humidity: 60%   Direction: 290°WNW
Pressure: 29.82"   Gusts: 18mph
Location:  44.8°N, 84.04°W
Report Text: KAPN 202054Z AUTO 29008G16KT 10SM SCT038 SCT048 BKN090 M06/M13 A2982 RMK AO2 SNE03 SLP111 P0000 60000 T10611128 53026
Loading
Personal Weather Stations






























Interactive Weather Map New forecast layout! Learn more

10-Day Weather Forecast

Advertisements
Track Severe Weather on mobile